Time;durP1;ratioP1;P1;durP2;ratioP2;P2;SDS_P1;SDS_P2;PMS_P1;PMS_P2;Temp;Humidity;BMP_temperature;BMP_pressure;BME280_temperature;BME280_humidity;BME280_pressure;Samples;Min_cycle;Max_cycle;Signal;HPM_P1;HPM_P2
2023/01/17 00:02:13;;;;;;;15.43;8.53;;;3.70;99.90;;;;;;4937228;29;20198;-71
2023/01/17 00:10:20;;;;;;;15.50;8.37;;;3.70;99.90;;;;;;4939547;29;20187;-72
2023/01/17 00:12:50;;;;;;;15.10;7.93;;;3.70;99.90;;;;;;4958010;29;20202;-73
2023/01/17 00:15:22;;;;;;;14.03;8.43;;;3.60;99.90;;;;;;4940729;29;20198;-72
2023/01/17 00:17:50;;;;;;;14.30;8.40;;;3.70;99.90;;;;;;4940835;29;20266;-74
2023/01/17 00:26:15;;;;;;;14.67;8.60;;;3.70;99.90;;;;;;4940818;29;20226;-73
2023/01/17 01:35:58;;;;;;;20.90;10.87;;;3.90;99.90;;;;;;4958096;28;20213;-81
2023/01/17 01:38:25;;;;;;;19.13;10.70;;;3.90;99.90;;;;;;4974579;28;20709;-81
2023/01/17 01:40:55;;;;;;;20.03;10.90;;;3.90;99.90;;;;;;4958835;28;20201;-81
2023/01/17 01:43:42;;;;;;;20.53;10.90;;;4.00;99.90;;;;;;4976137;28;20213;-80
2023/01/17 01:46:13;;;;;;;18.23;10.03;;;3.90;99.90;;;;;;4976112;28;20202;-78
2023/01/17 01:48:57;;;;;;;17.47;10.10;;;4.00;99.90;;;;;;4958867;28;20205;-74
2023/01/17 01:51:37;;;;;;;18.87;10.67;;;4.00;99.90;;;;;;4975854;28;20205;-77
2023/01/17 01:54:12;;;;;;;21.57;9.93;;;4.00;99.90;;;;;;4975808;28;20193;-76
2023/01/17 01:56:40;;;;;;;18.90;10.40;;;4.00;99.90;;;;;;4958826;28;20216;-76
2023/01/17 01:59:10;;;;;;;18.87;10.47;;;4.00;99.90;;;;;;4974623;28;20233;-78
2023/01/17 02:01:36;;;;;;;19.70;10.43;;;4.10;99.90;;;;;;4958486;28;20208;-76
2023/01/17 02:04:09;;;;;;;20.97;10.67;;;4.10;99.90;;;;;;4959248;28;20205;-77
2023/01/17 02:06:46;;;;;;;21.23;10.70;;;4.10;99.90;;;;;;4974578;28;20208;-80
2023/01/17 02:09:15;;;;;;;19.03;10.60;;;4.10;99.90;;;;;;4975399;28;20580;-81
2023/01/17 02:11:43;;;;;;;18.70;10.37;;;4.10;99.90;;;;;;4958288;28;20204;-79
2023/01/17 02:14:21;;;;;;;19.07;10.37;;;4.10;99.90;;;;;;4958122;28;20563;-76
2023/01/17 02:16:59;;;;;;;19.30;10.03;;;4.10;99.90;;;;;;4975828;28;20234;-79
2023/01/17 02:19:39;;;;;;;19.70;10.00;;;4.10;99.90;;;;;;4977012;28;20546;-75
2023/01/17 02:22:20;;;;;;;19.03;10.00;;;4.10;99.90;;;;;;4975282;28;20194;-75
2023/01/17 02:25:09;;;;;;;19.10;10.27;;;4.10;99.90;;;;;;4957800;28;20208;-78
2023/01/17 02:28:19;;;;;;;18.80;10.30;;;4.00;99.90;;;;;;4975179;28;20225;-79
2023/01/17 02:30:57;;;;;;;19.47;9.90;;;4.00;99.90;;;;;;4957860;28;20194;-76
2023/01/17 02:33:49;;;;;;;17.27;9.47;;;4.10;99.90;;;;;;4957139;28;20561;-75
2023/01/17 02:36:35;;;;;;;19.20;10.30;;;4.10;99.90;;;;;;4957225;28;20286;-77
2023/01/17 02:39:20;;;;;;;18.77;10.70;;;4.10;99.90;;;;;;4957251;28;20311;-73
2023/01/17 02:41:53;;;;;;;22.80;10.63;;;4.00;99.90;;;;;;4974036;28;20282;-78
2023/01/17 02:44:21;;;;;;;20.17;10.47;;;4.10;99.90;;;;;;4973565;28;20214;-77
2023/01/17 02:46:54;;;;;;;20.07;10.83;;;4.10;99.90;;;;;;4957284;28;20455;-77
2023/01/17 02:49:25;;;;;;;19.27;10.57;;;4.00;99.90;;;;;;4957753;28;20202;-76
2023/01/17 02:52:28;;;;;;;19.53;10.90;;;4.00;99.90;;;;;;4958968;28;20197;-74
2023/01/17 02:55:30;;;;;;;19.47;10.27;;;4.00;99.90;;;;;;4974897;28;20223;-76
2023/01/17 02:58:40;;;;;;;18.73;10.30;;;4.00;99.90;;;;;;4974770;28;20292;-77
2023/01/17 03:01:29;;;;;;;19.90;10.43;;;3.90;99.90;;;;;;4957907;28;20207;-76
2023/01/17 03:04:22;;;;;;;20.50;10.80;;;3.90;99.90;;;;;;4974603;28;20260;-73
2023/01/17 03:07:09;;;;;;;19.47;10.03;;;4.00;99.90;;;;;;4973592;28;20670;-79
2023/01/17 03:09:37;;;;;;;19.87;10.73;;;3.90;99.90;;;;;;4974645;28;20213;-75
2023/01/17 03:12:05;;;;;;;18.83;10.87;;;3.90;99.90;;;;;;4974422;28;20537;-76
2023/01/17 03:14:31;;;;;;;21.23;11.40;;;3.90;99.90;;;;;;4957248;28;20720;-80
2023/01/17 03:16:58;;;;;;;21.33;11.00;;;3.90;99.90;;;;;;4972997;28;20208;-79
2023/01/17 03:19:25;;;;;;;20.53;11.13;;;3.90;99.90;;;;;;4972948;28;20222;-74
2023/01/17 03:21:52;;;;;;;19.17;10.40;;;3.90;99.90;;;;;;4973089;28;20283;-79
2023/01/17 03:24:19;;;;;;;17.37;10.33;;;3.80;99.90;;;;;;4974181;28;20261;-75
2023/01/17 03:26:46;;;;;;;20.07;10.43;;;3.80;99.90;;;;;;4974219;28;20193;-80
2023/01/17 03:29:15;;;;;;;19.83;10.27;;;3.80;99.90;;;;;;4957207;28;20325;-78
2023/01/17 03:31:42;;;;;;;19.63;10.87;;;3.80;99.90;;;;;;4973329;28;20214;-79
2023/01/17 03:34:09;;;;;;;17.40;9.70;;;3.90;99.90;;;;;;4972987;28;20197;-81
2023/01/17 03:36:35;;;;;;;16.70;9.63;;;3.90;99.90;;;;;;4973766;28;20231;-77
2023/01/17 03:39:02;;;;;;;18.70;9.97;;;3.80;99.90;;;;;;4956871;28;20225;-77
2023/01/17 03:41:29;;;;;;;17.50;9.53;;;3.90;99.90;;;;;;4956987;28;20210;-80
2023/01/17 03:43:56;;;;;;;18.77;9.90;;;3.90;99.90;;;;;;4957455;28;20316;-80
2023/01/17 03:46:27;;;;;;;17.23;9.20;;;3.90;99.90;;;;;;4960519;28;20201;-77
2023/01/17 03:48:54;;;;;;;15.97;9.37;;;3.90;99.90;;;;;;4960745;28;20702;-78
2023/01/17 03:51:21;;;;;;;16.07;9.50;;;3.90;99.90;;;;;;4960605;28;20196;-78
2023/01/17 03:53:48;;;;;;;16.53;9.17;;;4.00;99.90;;;;;;4960528;28;20726;-79
2023/01/17 03:56:15;;;;;;;18.50;10.00;;;3.90;99.90;;;;;;4977917;28;20662;-81
2023/01/17 03:58:42;;;;;;;19.20;10.30;;;4.00;99.90;;;;;;4960911;28;20264;-81
2023/01/17 04:01:09;;;;;;;16.93;10.07;;;4.00;99.90;;;;;;4976770;28;20201;-79
2023/01/17 04:03:36;;;;;;;16.90;9.83;;;3.90;99.90;;;;;;4976920;28;20205;-80
2023/01/17 04:06:04;;;;;;;17.43;9.57;;;3.90;99.90;;;;;;4960273;28;20199;-79
2023/01/17 04:08:30;;;;;;;18.53;9.27;;;3.80;99.90;;;;;;4960638;28;20200;-83
2023/01/17 04:10:57;;;;;;;17.03;9.73;;;3.80;99.90;;;;;;4977825;28;20198;-80
2023/01/17 04:13:24;;;;;;;17.33;10.07;;;3.80;99.90;;;;;;4960464;28;20293;-81
2023/01/17 04:15:51;;;;;;;17.23;9.40;;;3.80;99.90;;;;;;4960290;28;20195;-81
2023/01/17 04:18:19;;;;;;;15.87;9.23;;;3.70;99.90;;;;;;4960464;28;20234;-80
2023/01/17 04:20:46;;;;;;;16.57;9.53;;;3.80;99.90;;;;;;4977402;28;20672;-81
2023/01/17 04:23:13;;;;;;;16.10;9.37;;;3.80;99.90;;;;;;4977570;28;20233;-81
2023/01/17 04:25:41;;;;;;;17.70;9.27;;;3.80;99.90;;;;;;4960424;28;20221;-77
2023/01/17 04:28:09;;;;;;;15.27;8.93;;;3.80;99.90;;;;;;4960457;28;20260;-80
2023/01/17 04:30:36;;;;;;;15.33;9.10;;;3.80;99.90;;;;;;4977444;28;20289;-81
2023/01/17 04:33:03;;;;;;;15.47;9.27;;;3.80;99.90;;;;;;4960154;28;20212;-83
2023/01/17 04:35:32;;;;;;;16.80;9.40;;;3.90;99.90;;;;;;4975766;28;20205;-80
2023/01/17 04:37:59;;;;;;;17.37;9.17;;;3.90;99.90;;;;;;4941501;28;20274;-80
2023/01/17 04:40:28;;;;;;;16.77;9.07;;;3.80;99.90;;;;;;4958145;29;20197;-82
2023/01/17 04:42:58;;;;;;;15.83;8.53;;;3.80;99.90;;;;;;4957009;29;20537;-76
2023/01/17 04:45:25;;;;;;;15.60;8.50;;;3.80;99.90;;;;;;4940504;29;20220;-76
2023/01/17 04:47:52;;;;;;;15.87;8.53;;;3.80;99.90;;;;;;4956603;29;20209;-78
2023/01/17 04:50:19;;;;;;;15.73;8.87;;;3.80;99.90;;;;;;4940549;29;20209;-77
2023/01/17 04:52:45;;;;;;;16.23;9.33;;;3.80;99.90;;;;;;4957939;29;20204;-80
2023/01/17 04:55:12;;;;;;;17.03;9.50;;;3.70;99.90;;;;;;4959268;28;20202;-78
2023/01/17 04:57:39;;;;;;;17.67;9.10;;;3.70;99.90;;;;;;4941987;29;20226;-76
2023/01/17 05:00:07;;;;;;;17.40;9.10;;;3.70;99.90;;;;;;4957955;29;20301;-82
2023/01/17 05:02:34;;;;;;;17.23;9.00;;;3.70;99.90;;;;;;4958652;29;20245;-78
2023/01/17 05:05:01;;;;;;;17.27;8.83;;;3.70;99.90;;;;;;4940223;29;20670;-78
2023/01/17 05:07:28;;;;;;;18.30;9.77;;;3.70;99.90;;;;;;4940140;29;20207;-77
2023/01/17 05:09:55;;;;;;;19.17;10.10;;;3.70;99.90;;;;;;4940705;29;20238;-78
2023/01/17 05:12:22;;;;;;;18.20;9.83;;;3.80;99.90;;;;;;4956351;29;20269;-78
2023/01/17 05:14:50;;;;;;;17.97;10.10;;;3.80;99.90;;;;;;4940424;29;20216;-79
2023/01/17 05:17:17;;;;;;;17.43;9.57;;;3.70;99.90;;;;;;4956813;29;20298;-79
2023/01/17 05:19:44;;;;;;;18.20;10.10;;;3.60;99.90;;;;;;4940489;29;20245;-83
2023/01/17 05:22:15;;;;;;;17.13;9.60;;;3.70;99.90;;;;;;4940696;29;20227;-84
2023/01/17 05:24:46;;;;;;;18.40;10.00;;;3.60;99.90;;;;;;4940576;29;20258;-81
2023/01/17 05:27:14;;;;;;;19.17;10.40;;;3.60;99.90;;;;;;4939843;29;20239;-82
2023/01/17 05:29:41;;;;;;;18.10;10.13;;;3.60;99.90;;;;;;4939601;29;20227;-83
2023/01/17 05:32:08;;;;;;;17.87;9.77;;;3.60;99.90;;;;;;4939593;29;20247;-83
2023/01/17 05:34:35;;;;;;;19.23;9.57;;;3.60;99.90;;;;;;4941438;29;20299;-81
2023/01/17 05:37:01;;;;;;;16.43;8.97;;;3.60;99.90;;;;;;4951808;28;20765;-83
2023/01/17 05:39:29;;;;;;;16.70;9.43;;;3.60;99.90;;;;;;4976385;28;20579;-84
2023/01/17 05:41:57;;;;;;;16.23;9.07;;;3.60;99.90;;;;;;4958970;28;20197;-83
2023/01/17 05:44:24;;;;;;;17.33;9.17;;;3.60;99.90;;;;;;4976398;28;20217;-80
2023/01/17 05:46:50;;;;;;;19.53;9.20;;;3.60;99.90;;;;;;4958352;28;20667;-81
2023/01/17 05:49:17;;;;;;;18.03;9.30;;;3.50;99.90;;;;;;4958573;28;20200;-83
2023/01/17 05:51:44;;;;;;;18.20;9.07;;;3.60;99.90;;;;;;4958769;28;20198;-84
2023/01/17 05:54:11;;;;;;;17.47;9.00;;;3.50;99.90;;;;;;4958200;28;20198;-84
2023/01/17 05:56:38;;;;;;;16.43;8.80;;;3.60;99.90;;;;;;4974446;28;20202;-84
2023/01/17 05:59:05;;;;;;;15.90;9.03;;;3.60;99.90;;;;;;4958699;28;20233;-84
2023/01/17 06:01:31;;;;;;;17.50;8.73;;;3.60;99.90;;;;;;4958434;28;20201;-81
2023/01/17 06:03:58;;;;;;;17.33;8.80;;;3.60;99.90;;;;;;4958386;28;20628;-80
2023/01/17 06:06:25;;;;;;;17.20;8.57;;;3.60;99.90;;;;;;4958297;28;20205;-81
2023/01/17 06:08:52;;;;;;;15.73;9.13;;;3.60;99.90;;;;;;4958062;28;20194;-79
2023/01/17 06:11:19;;;;;;;16.90;8.70;;;3.60;99.90;;;;;;4958664;28;20212;-84
2023/01/17 06:13:47;;;;;;;16.70;9.40;;;3.50;99.90;;;;;;4958690;28;20209;-77
2023/01/17 06:16:14;;;;;;;18.17;9.53;;;3.50;99.90;;;;;;4958061;28;20210;-82
2023/01/17 06:18:41;;;;;;;17.60;9.07;;;3.50;99.90;;;;;;4957837;28;20274;-82
2023/01/17 06:21:09;;;;;;;17.40;9.50;;;3.50;99.90;;;;;;4958236;28;20202;-82
2023/01/17 06:23:36;;;;;;;15.37;8.70;;;3.50;99.90;;;;;;4975202;28;20193;-83
2023/01/17 06:26:03;;;;;;;18.57;9.60;;;3.40;99.90;;;;;;4958073;28;20700;-82
2023/01/17 06:28:30;;;;;;;17.63;9.30;;;3.40;99.90;;;;;;4957972;28;20206;-83
2023/01/17 06:30:58;;;;;;;16.57;9.10;;;3.30;99.90;;;;;;4958152;28;20197;-82
2023/01/17 06:33:25;;;;;;;16.17;9.23;;;3.20;99.90;;;;;;4975522;28;20221;-85
2023/01/17 06:35:53;;;;;;;17.43;9.50;;;3.30;99.90;;;;;;4973834;28;20202;-81
2023/01/17 06:38:20;;;;;;;19.00;9.50;;;3.30;99.90;;;;;;4974167;28;20248;-82
2023/01/17 06:40:50;;;;;;;16.20;9.20;;;3.20;99.90;;;;;;4957855;28;20205;-76
2023/01/17 06:43:17;;;;;;;19.13;9.30;;;3.20;99.90;;;;;;4958071;28;20225;-79
2023/01/17 06:45:44;;;;;;;17.83;9.50;;;3.10;99.90;;;;;;4957384;28;20264;-79
2023/01/17 06:48:11;;;;;;;18.13;9.33;;;3.10;99.90;;;;;;4957743;28;20253;-81
2023/01/17 06:50:38;;;;;;;16.87;9.50;;;3.00;99.90;;;;;;4957741;28;20202;-76
2023/01/17 06:53:06;;;;;;;18.70;9.40;;;3.00;99.90;;;;;;4957833;28;20202;-83
2023/01/17 06:55:34;;;;;;;18.37;9.30;;;3.00;99.90;;;;;;4941642;28;20202;-82
2023/01/17 06:58:04;;;;;;;15.13;8.73;;;3.00;99.90;;;;;;4959006;28;20210;-81
2023/01/17 07:00:33;;;;;;;16.50;8.90;;;3.00;99.90;;;;;;4977888;28;20224;-78
2023/01/17 07:03:01;;;;;;;19.20;9.23;;;3.00;99.90;;;;;;4959029;28;20208;-85
2023/01/17 07:05:36;;;;;;;18.33;9.33;;;2.90;99.90;;;;;;4957612;28;20651;-77
2023/01/17 07:08:35;;;;;;;15.67;8.93;;;3.00;99.90;;;;;;4962308;28;20258;-84
2023/01/17 07:11:09;;;;;;;16.40;8.20;;;3.00;99.90;;;;;;4957273;28;20300;-81
2023/01/17 07:13:37;;;;;;;15.17;8.47;;;3.10;99.90;;;;;;4957457;28;20624;-82
2023/01/17 07:16:05;;;;;;;18.77;9.23;;;2.90;99.90;;;;;;4945238;29;20206;-82
2023/01/17 07:18:33;;;;;;;14.37;8.50;;;2.90;99.90;;;;;;4955649;28;20194;-82
2023/01/17 07:21:00;;;;;;;15.27;8.30;;;2.90;99.90;;;;;;4938752;29;20216;-79
2023/01/17 07:23:27;;;;;;;19.37;8.80;;;2.90;99.90;;;;;;4942341;29;20208;-78
2023/01/17 07:25:58;;;;;;;17.40;8.37;;;2.90;99.90;;;;;;4956285;29;20225;-81
2023/01/17 07:28:27;;;;;;;13.90;8.27;;;2.90;99.90;;;;;;4960273;29;20199;-81
2023/01/17 07:30:53;;;;;;;28.47;10.80;;;2.80;99.90;;;;;;4944539;29;20205;-80
2023/01/17 07:33:21;;;;;;;16.50;9.03;;;2.90;99.90;;;;;;4938422;29;20309;-81
2023/01/17 07:35:48;;;;;;;35.27;10.63;;;3.00;99.90;;;;;;4938230;28;20201;-82
2023/01/17 07:38:17;;;;;;;22.70;8.87;;;2.90;99.90;;;;;;4974054;28;20197;-82
2023/01/17 07:40:45;;;;;;;16.23;8.97;;;3.00;99.90;;;;;;4956849;28;20631;-80
2023/01/17 07:43:12;;;;;;;18.27;9.17;;;3.00;99.90;;;;;;4974380;28;20694;-81
2023/01/17 07:45:43;;;;;;;37.23;11.13;;;3.10;99.90;;;;;;4956810;28;20296;-80
2023/01/17 07:48:11;;;;;;;17.23;8.50;;;3.40;99.90;;;;;;4956638;28;20217;-80
2023/01/17 07:50:38;;;;;;;14.73;8.47;;;3.90;99.90;;;;;;4956899;28;20198;-77
2023/01/17 07:53:05;;;;;;;13.47;7.87;;;4.40;99.90;;;;;;4956708;28;20277;-78
2023/01/17 07:55:32;;;;;;;14.07;7.83;;;4.50;99.90;;;;;;4956521;28;20208;-82
2023/01/17 07:57:59;;;;;;;15.90;7.83;;;4.70;99.90;;;;;;4956617;28;20205;-83
2023/01/17 08:00:28;;;;;;;17.90;7.40;;;4.90;99.90;;;;;;4956603;28;20322;-82
2023/01/17 08:03:00;;;;;;;13.03;6.97;;;5.00;99.90;;;;;;4974063;28;20224;-82
2023/01/17 08:05:29;;;;;;;14.03;7.17;;;4.90;99.90;;;;;;4973836;28;20197;-81
2023/01/17 08:07:56;;;;;;;16.90;7.80;;;5.00;99.90;;;;;;4973795;28;20248;-82
2023/01/17 08:10:23;;;;;;;13.70;7.80;;;5.30;99.90;;;;;;4956539;28;20274;-78
2023/01/17 08:12:50;;;;;;;17.27;7.80;;;5.30;99.90;;;;;;4956628;28;20572;-81
2023/01/17 08:15:17;;;;;;;15.90;7.50;;;5.50;99.90;;;;;;4956244;28;20296;-80
2023/01/17 08:17:45;;;;;;;11.40;6.93;;;5.60;99.90;;;;;;4972253;28;20207;-81
2023/01/17 08:20:13;;;;;;;15.67;7.20;;;5.70;99.90;;;;;;4956327;28;20226;-81
2023/01/17 08:22:40;;;;;;;13.07;6.60;;;5.80;99.90;;;;;;4956834;28;20195;-81
2023/01/17 08:25:07;;;;;;;16.13;7.17;;;5.80;99.90;;;;;;4956345;28;20202;-81
2023/01/17 08:27:34;;;;;;;12.03;6.53;;;5.70;99.90;;;;;;4956213;28;20639;-80
2023/01/17 08:30:02;;;;;;;11.73;6.60;;;5.70;99.90;;;;;;4956565;28;20550;-80
2023/01/17 08:32:29;;;;;;;11.27;6.20;;;5.80;99.90;;;;;;4960214;28;20216;-78
2023/01/17 08:34:56;;;;;;;11.33;6.20;;;5.70;99.90;;;;;;4977116;28;20649;-77
2023/01/17 08:37:23;;;;;;;14.67;6.87;;;5.50;99.90;;;;;;4977245;28;20230;-77
2023/01/17 08:39:50;;;;;;;10.53;6.40;;;5.50;99.90;;;;;;4959858;28;20237;-78
2023/01/17 08:42:17;;;;;;;11.50;6.33;;;5.20;99.90;;;;;;4975826;28;20204;-76
2023/01/17 08:44:44;;;;;;;11.50;6.20;;;5.20;99.90;;;;;;4959748;28;20313;-77
2023/01/17 08:47:11;;;;;;;10.43;6.23;;;5.20;99.90;;;;;;4959832;28;20201;-78
2023/01/17 08:49:38;;;;;;;11.07;6.10;;;5.00;99.90;;;;;;4959733;28;20673;-78
2023/01/17 08:52:05;;;;;;;13.00;6.57;;;5.00;99.90;;;;;;4975989;28;20202;-76
2023/01/17 08:54:32;;;;;;;10.07;6.00;;;5.00;99.90;;;;;;4959575;28;20199;-79
2023/01/17 08:56:59;;;;;;;10.97;5.90;;;5.00;99.90;;;;;;4959574;28;20206;-77
2023/01/17 08:59:26;;;;;;;12.57;6.07;;;4.80;99.90;;;;;;4959647;28;20717;-80
2023/01/17 09:01:54;;;;;;;10.80;6.23;;;4.70;99.90;;;;;;4959526;28;20215;-76
2023/01/17 09:04:21;;;;;;;11.27;5.47;;;4.60;99.90;;;;;;4961837;28;20251;-78
2023/01/17 09:06:48;;;;;;;11.17;6.10;;;4.60;99.90;;;;;;4960272;28;20198;-80
2023/01/17 09:09:16;;;;;;;11.57;6.10;;;4.50;99.90;;;;;;4959674;28;20233;-77
2023/01/17 09:11:42;;;;;;;18.67;7.33;;;4.50;99.90;;;;;;4959637;28;20200;-78
2023/01/17 09:14:13;;;;;;;11.33;5.97;;;4.50;99.90;;;;;;4959185;28;20609;-77
2023/01/17 09:16:40;;;;;;;9.93;5.63;;;4.50;99.90;;;;;;4959478;28;20551;-80
2023/01/17 09:19:07;;;;;;;10.40;6.07;;;4.60;99.90;;;;;;4959021;28;20241;-80
2023/01/17 09:21:34;;;;;;;9.73;5.70;;;4.70;99.90;;;;;;4976925;28;20206;-78
2023/01/17 09:24:01;;;;;;;8.53;5.43;;;4.70;99.90;;;;;;4958910;28;20207;-81
2023/01/17 09:26:29;;;;;;;10.23;6.20;;;4.70;99.90;;;;;;4959005;28;20227;-80
2023/01/17 09:28:57;;;;;;;8.77;5.33;;;4.80;99.90;;;;;;4976368;28;20198;-80
2023/01/17 09:31:25;;;;;;;9.97;5.73;;;4.70;99.90;;;;;;4975427;28;20574;-81
2023/01/17 09:33:54;;;;;;;9.60;5.90;;;4.80;99.90;;;;;;4958761;28;20202;-78
2023/01/17 09:36:22;;;;;;;11.40;6.00;;;4.80;99.90;;;;;;4958416;28;20225;-81
2023/01/17 09:38:56;;;;;;;11.40;6.50;;;4.80;99.90;;;;;;4974222;28;20194;-77
2023/01/17 09:41:28;;;;;;;9.60;5.73;;;4.80;99.90;;;;;;4957358;28;20677;-82
2023/01/17 09:44:01;;;;;;;11.83;6.53;;;4.90;99.90;;;;;;4973611;28;20628;-81
2023/01/17 09:46:32;;;;;;;10.43;5.90;;;4.90;99.90;;;;;;4957769;28;20203;-79
2023/01/17 09:49:05;;;;;;;9.87;5.90;;;4.80;99.90;;;;;;4957637;28;20194;-82
2023/01/17 09:51:32;;;;;;;10.13;6.10;;;4.80;99.90;;;;;;4957920;28;20211;-82
2023/01/17 09:54:01;;;;;;;10.33;5.70;;;4.90;99.90;;;;;;4957719;28;20646;-80
2023/01/17 09:56:34;;;;;;;11.87;6.53;;;4.80;99.90;;;;;;4957387;28;20199;-80
2023/01/17 09:59:26;;;;;;;12.23;5.77;;;4.90;99.90;;;;;;4957705;28;20199;-80
2023/01/17 10:02:29;;;;;;;12.93;6.20;;;5.00;99.90;;;;;;4957440;28;20195;-79
2023/01/17 10:05:13;;;;;;;10.67;5.90;;;4.90;99.90;;;;;;4975049;28;20203;-80
2023/01/17 10:08:04;;;;;;;13.67;6.67;;;4.90;99.90;;;;;;4957683;28;20203;-81
2023/01/17 10:10:52;;;;;;;11.23;6.70;;;4.80;99.90;;;;;;4974534;28;20297;-77
2023/01/17 10:13:40;;;;;;;13.83;6.67;;;4.90;99.90;;;;;;4974620;28;20286;-81
2023/01/17 10:16:34;;;;;;;10.70;5.93;;;4.90;99.90;;;;;;4957364;28;20202;-82
2023/01/17 10:19:22;;;;;;;11.00;6.17;;;4.70;99.90;;;;;;4957828;28;20233;-81
2023/01/17 10:22:01;;;;;;;12.23;6.70;;;4.80;99.90;;;;;;4957984;28;20204;-78
2023/01/17 10:24:40;;;;;;;11.57;6.97;;;4.80;99.90;;;;;;4957147;28;20205;-82
2023/01/17 10:27:22;;;;;;;12.63;6.90;;;4.90;99.90;;;;;;4957892;28;20210;-83
2023/01/17 10:29:50;;;;;;;12.47;6.33;;;4.80;99.90;;;;;;4957629;28;20202;-82
2023/01/17 10:32:20;;;;;;;11.07;6.87;;;4.70;99.90;;;;;;4973121;28;20214;-78
2023/01/17 10:34:51;;;;;;;12.43;7.07;;;4.90;99.90;;;;;;4956677;28;20198;-81
2023/01/17 10:37:24;;;;;;;13.53;6.63;;;4.90;99.90;;;;;;4937054;28;1084627;-82
2023/01/17 10:39:54;;;;;;;10.43;6.43;;;5.00;99.90;;;;;;4957600;28;20717;-79
2023/01/17 10:42:30;;;;;;;23.17;8.40;;;5.00;99.90;;;;;;4957527;28;20200;-79
2023/01/17 10:45:15;;;;;;;14.53;7.20;;;4.90;99.90;;;;;;4957046;28;20213;-77
2023/01/17 10:47:47;;;;;;;13.60;7.27;;;4.90;99.90;;;;;;4957265;28;20202;-82
2023/01/17 10:50:14;;;;;;;15.97;7.50;;;5.10;99.90;;;;;;4974806;28;20203;-80
2023/01/17 10:52:55;;;;;;;11.63;6.60;;;5.10;99.90;;;;;;4957314;28;20219;-81
2023/01/17 10:55:42;;;;;;;12.30;6.63;;;5.10;99.90;;;;;;4956799;28;20202;-73
2023/01/17 10:58:12;;;;;;;11.90;6.80;;;5.10;99.90;;;;;;4957000;28;20208;-76
2023/01/17 11:00:59;;;;;;;12.33;7.20;;;5.20;99.90;;;;;;4957054;28;20233;-75
2023/01/17 11:03:27;;;;;;;13.23;6.93;;;5.30;99.90;;;;;;4956860;28;20214;-80
2023/01/17 11:06:13;;;;;;;11.30;6.87;;;5.20;99.90;;;;;;4957143;28;20664;-76
2023/01/17 11:08:51;;;;;;;11.83;6.80;;;5.00;99.90;;;;;;4957074;28;20204;-77
2023/01/17 11:11:22;;;;;;;13.47;7.43;;;5.10;99.90;;;;;;4974248;28;20195;-75
2023/01/17 11:13:50;;;;;;;15.63;7.63;;;5.10;99.90;;;;;;4972954;28;20672;-77
2023/01/17 11:16:21;;;;;;;15.03;7.77;;;5.10;99.90;;;;;;4956655;28;20206;-77
2023/01/17 11:19:13;;;;;;;12.27;7.47;;;5.00;99.90;;;;;;4956774;28;20575;-77
2023/01/17 11:22:00;;;;;;;14.57;7.60;;;5.00;99.90;;;;;;4957226;28;20299;-75
2023/01/17 11:24:34;;;;;;;14.70;7.73;;;5.10;99.90;;;;;;4956624;28;20200;-80
2023/01/17 11:27:04;;;;;;;11.27;6.93;;;5.10;99.90;;;;;;4959133;28;20209;-76
2023/01/17 11:29:36;;;;;;;14.17;7.57;;;5.00;99.90;;;;;;4957441;28;20205;-80
2023/01/17 11:32:21;;;;;;;14.17;7.87;;;5.10;99.90;;;;;;4956902;28;20221;-80
2023/01/17 11:35:08;;;;;;;12.87;7.80;;;5.10;99.90;;;;;;4956322;28;20209;-80
2023/01/17 11:37:35;;;;;;;14.03;7.63;;;5.20;99.90;;;;;;4956264;28;20226;-81
2023/01/17 11:40:20;;;;;;;13.40;7.77;;;5.10;99.90;;;;;;4956417;28;20557;-75
2023/01/17 11:43:24;;;;;;;14.37;7.90;;;5.10;99.90;;;;;;4956778;28;20209;-79
2023/01/17 11:46:13;;;;;;;15.20;7.57;;;5.10;99.90;;;;;;4954672;28;20285;-77
2023/01/17 11:48:40;;;;;;;15.93;7.77;;;5.20;99.90;;;;;;4956666;28;20296;-78
2023/01/17 11:51:32;;;;;;;14.87;8.13;;;5.10;99.90;;;;;;4974004;28;20557;-82
2023/01/17 11:54:14;;;;;;;19.00;8.53;;;5.10;99.90;;;;;;4956814;28;20200;-80
2023/01/17 11:56:44;;;;;;;16.97;7.80;;;5.10;99.90;;;;;;4956908;28;20195;-78
2023/01/17 11:59:29;;;;;;;14.40;7.73;;;5.20;99.90;;;;;;4956629;28;20198;-76
2023/01/17 12:02:23;;;;;;;12.97;7.73;;;5.00;99.90;;;;;;4973815;28;20328;-78
2023/01/17 12:05:08;;;;;;;13.50;7.90;;;5.00;99.90;;;;;;4956298;28;20216;-79
2023/01/17 12:07:47;;;;;;;13.73;8.00;;;5.00;99.90;;;;;;4977762;28;20199;-78
2023/01/17 12:10:42;;;;;;;15.53;7.93;;;5.00;99.90;;;;;;4960303;28;20202;-78
2023/01/17 12:16:30;;;;;;;14.70;8.13;;;5.00;99.90;;;;;;4977329;28;20188;-84
2023/01/17 12:19:03;;;;;;;17.23;8.33;;;4.90;99.90;;;;;;4977566;28;20176;-80
2023/01/17 12:21:39;;;;;;;16.43;8.57;;;5.00;99.90;;;;;;4960290;28;20282;-77
2023/01/17 12:24:45;;;;;;;16.03;8.13;;;5.10;99.90;;;;;;4977297;28;20297;-81
2023/01/17 12:27:39;;;;;;;14.67;7.63;;;5.10;99.90;;;;;;4960165;28;20201;-82
2023/01/17 12:30:26;;;;;;;15.47;7.90;;;5.10;99.90;;;;;;4960108;28;20205;-81
2023/01/17 12:33:08;;;;;;;14.20;8.10;;;5.00;99.90;;;;;;4977681;28;20278;-82
2023/01/17 12:35:42;;;;;;;15.07;8.43;;;5.00;99.90;;;;;;4977257;28;20569;-81
2023/01/17 12:38:14;;;;;;;15.73;8.27;;;5.10;99.90;;;;;;4959833;28;20296;-81
2023/01/17 12:41:22;;;;;;;15.97;8.47;;;5.10;99.90;;;;;;4975601;28;20661;-83
2023/01/17 12:43:54;;;;;;;16.13;8.60;;;5.10;99.90;;;;;;4959893;28;20218;-76
2023/01/17 12:46:29;;;;;;;17.50;8.43;;;5.00;99.90;;;;;;4959586;28;20237;-75
2023/01/17 12:49:03;;;;;;;13.37;7.67;;;5.00;99.90;;;;;;4976782;28;20185;-76
2023/01/17 12:51:37;;;;;;;14.87;8.50;;;5.00;99.90;;;;;;4976705;28;20581;-80
2023/01/17 12:54:23;;;;;;;14.83;8.13;;;5.10;99.90;;;;;;4959542;28;20211;-78
2023/01/17 12:56:57;;;;;;;17.47;8.80;;;5.10;99.90;;;;;;4976646;28;20553;-79
2023/01/17 12:59:47;;;;;;;17.43;8.93;;;5.20;99.90;;;;;;4959358;28;20199;-78
2023/01/17 13:02:19;;;;;;;17.73;9.00;;;5.30;99.90;;;;;;4898096;29;20348;-82
2023/01/17 13:04:56;;;;;;;16.53;8.63;;;5.30;99.90;;;;;;4898364;29;20227;-83
2023/01/17 13:07:48;;;;;;;18.20;8.77;;;5.30;99.90;;;;;;4886126;29;20200;-80
2023/01/17 13:10:21;;;;;;;18.13;9.10;;;5.40;99.90;;;;;;4897870;29;20233;-78
2023/01/17 13:12:49;;;;;;;18.17;8.83;;;5.60;99.90;;;;;;4882788;29;20214;-83
2023/01/17 13:15:21;;;;;;;15.87;9.33;;;5.70;99.90;;;;;;4883355;29;20221;-77
2023/01/17 13:17:54;;;;;;;16.27;8.83;;;5.80;99.90;;;;;;4898247;29;20227;-85
2023/01/17 13:20:32;;;;;;;17.20;8.37;;;6.30;99.90;;;;;;4898409;29;20714;-88
2023/01/17 13:23:15;;;;;;;16.03;9.10;;;6.50;99.90;;;;;;4898378;29;20210;-89
2023/01/17 13:25:48;;;;;;;14.53;8.13;;;7.00;99.90;;;;;;4881825;29;20216;-86
2023/01/17 13:28:21;;;;;;;15.83;8.63;;;7.40;99.90;;;;;;4898233;29;20203;-84
2023/01/17 13:31:07;;;;;;;17.17;8.80;;;7.80;99.90;;;;;;4882737;29;20205;-80
2023/01/17 13:34:04;;;;;;;20.43;9.00;;;8.00;99.90;;;;;;4884872;29;20240;-86
2023/01/17 13:37:07;;;;;;;15.40;8.70;;;8.10;99.90;;;;;;4897627;29;20236;-82
2023/01/17 13:40:02;;;;;;;16.87;8.17;;;7.90;99.90;;;;;;4928715;28;20607;-82
2023/01/17 13:42:52;;;;;;;15.80;7.97;;;7.80;99.90;;;;;;4975226;28;20193;-77
2023/01/17 13:45:22;;;;;;;13.83;7.93;;;7.80;99.90;;;;;;4958666;28;20638;-77
2023/01/17 13:47:51;;;;;;;13.37;7.87;;;8.10;99.90;;;;;;4958792;28;20205;-78
2023/01/17 13:50:37;;;;;;;16.27;8.50;;;8.10;99.90;;;;;;4958485;28;20201;-80
2023/01/17 13:53:35;;;;;;;14.37;8.17;;;7.80;99.90;;;;;;4958229;28;20212;-80
2023/01/17 13:56:17;;;;;;;14.30;7.73;;;8.00;99.90;;;;;;4958304;28;20201;-87
2023/01/17 13:58:53;;;;;;;15.50;8.40;;;8.10;99.90;;;;;;4958752;28;20255;-78
2023/01/17 14:01:23;;;;;;;14.13;7.73;;;8.10;99.90;;;;;;4958902;28;20687;-82
2023/01/17 14:03:50;;;;;;;16.93;8.57;;;8.20;99.90;;;;;;4958546;28;20651;-77
2023/01/17 14:06:43;;;;;;;11.70;7.13;;;8.30;99.90;;;;;;4958355;28;20224;-77
2023/01/17 14:09:29;;;;;;;14.17;7.70;;;8.20;99.90;;;;;;4974356;28;20239;-74
2023/01/17 14:11:58;;;;;;;15.07;7.93;;;8.20;99.90;;;;;;4957996;28;20209;-77
2023/01/17 14:14:43;;;;;;;13.20;7.17;;;8.10;99.90;;;;;;4956960;28;20204;-75
2023/01/17 14:17:19;;;;;;;14.10;7.80;;;7.90;99.90;;;;;;4943621;28;20710;-79
2023/01/17 14:20:00;;;;;;;15.33;7.70;;;7.80;99.90;;;;;;4975240;28;20224;-78
2023/01/17 14:22:31;;;;;;;14.73;7.83;;;7.70;99.90;;;;;;4957997;28;20247;-82
2023/01/17 14:25:10;;;;;;;14.70;8.00;;;7.80;99.90;;;;;;4958244;28;20267;-76
2023/01/17 14:27:49;;;;;;;14.87;8.00;;;7.80;99.90;;;;;;4957557;28;20659;-82
2023/01/17 14:30:18;;;;;;;14.10;8.33;;;7.70;99.90;;;;;;4975061;28;20204;-79
2023/01/17 14:32:57;;;;;;;15.67;8.77;;;7.60;99.90;;;;;;4975437;28;20193;-76
2023/01/17 14:35:56;;;;;;;16.07;8.40;;;7.50;99.90;;;;;;4974311;28;20210;-85
2023/01/17 14:38:28;;;;;;;15.83;8.10;;;7.40;99.90;;;;;;4899790;29;20197;-80
2023/01/17 14:40:59;;;;;;;14.87;7.90;;;7.10;99.90;;;;;;4915094;29;20235;-79